Terminal Aerodrome Forecast
Issued by NWS

Home | Current Version | Previous Version | Text Only | Print | Product List | Glossary On
Versions: 1 2 3 4 5 6 7 8 9 10 11 12 13 14 15 16 17 18
000
FTAK31 PANC 262103 AAB
TAFADU
TAF AMD
PADU 262103Z 2621/2718 29018G28KT P6SM -SHRA SCT025 BKN035
      TEMPO 2621/2624 BKN025
     FM270600 28008KT P6SM BKN025=

USA.gov is the U.S. government's official web portal to all federal, state and local government web resources and services.